Terminal Aerodrome Forecast
Issued by NWS

Home | Current Version | Previous Version | Text Only | Print | Product List | Glossary On
Versions: 1 2 3 4 5 6 7 8 9 10 11 12 13 14 15 16 17
000
FTUS41 KCAR 230751 AAA
TAFHUL
TAF AMD
KHUL 230751Z 2308/2406 32009G15KT P6SM VCSH BKN100
      TEMPO 2308/2310 6SM -RA OVC010
     FM231300 30014G23KT P6SM BKN050
     FM240000 25005KT P6SM SCT070=

USA.gov is the U.S. government's official web portal to all federal, state and local government web resources and services.